Bullocktown, Indiana
Current Conditions -  °F | °C
As of 8:54 AM on Wednesday 22 Oct 2014 (Local Time) from KEVV Reporting Station
Clear Clear  
Wind Chill: 45°   Ceiling: Unl
Heat Index: 48°   Visibility: 10mi
Dew Point: 42°   Wind: 6mph
Humidity: 80%   Direction: 40°NE
Pressure: 30.32"   Gusts: NA
Location:  38.0544°N, 87.2562°W
Report Text: KEVV 221354Z 04005KT 10SM CLR 09/06 A3032 RMK AO2 SLP269 T00890056
Loading
Personal Weather Stations






























Interactive Weather Map
Tropical Storm Tracking
New forecast layout! Learn more

10-Day Weather Forecast

Advertisements
Track Severe Weather on mobile